createdAt,value
2023-05-25T00:01:07.318Z,100.00
2023-05-25T00:03:36.271Z,100.00
2023-05-25T00:06:04.103Z,100.00
2023-05-25T00:08:31.864Z,100.00
2023-05-25T00:10:59.357Z,100.00
2023-05-25T00:13:26.392Z,100.00
2023-05-25T00:15:53.505Z,100.00
2023-05-25T00:18:21.242Z,100.00
2023-05-25T00:20:48.472Z,100.00
2023-05-25T00:23:15.611Z,100.00
2023-05-25T00:25:42.999Z,100.00
2023-05-25T00:28:11.847Z,100.00
2023-05-25T00:30:39.494Z,100.00
2023-05-25T00:33:07.223Z,100.00
2023-05-25T00:35:34.668Z,100.00
2023-05-25T00:38:01.846Z,100.00
2023-05-25T00:40:29.534Z,100.00
2023-05-25T00:42:59.533Z,100.00
2023-05-25T00:45:26.675Z,100.00
2023-05-25T00:47:54.452Z,100.00
2023-05-25T00:50:43.583Z,100.00
2023-05-25T00:53:13.102Z,100.00
2023-05-25T00:55:53.403Z,100.00
2023-05-25T00:58:27.426Z,100.00
2023-05-25T01:00:57.946Z,100.00
2023-05-25T01:03:29.785Z,100.00
2023-05-25T01:05:59.287Z,100.00
2023-05-25T01:08:28.206Z,100.00
2023-05-25T01:10:58.435Z,100.00
2023-05-25T01:13:27.720Z,100.00
2023-05-25T01:15:56.310Z,100.00
2023-05-25T01:18:23.465Z,100.00
2023-05-25T01:21:15.218Z,100.00
2023-05-25T01:23:51.512Z,100.00
2023-05-25T01:26:21.731Z,100.00
2023-05-25T01:28:53.371Z,100.00
2023-05-25T01:31:24.615Z,100.00
2023-05-25T01:33:53.900Z,100.00
2023-05-25T01:36:21.191Z,100.00
2023-05-25T01:38:49.607Z,100.00
2023-05-25T01:42:03.570Z,100.00
2023-05-25T01:44:31.173Z,100.00
2023-05-25T01:47:44.755Z,100.00
2023-05-25T01:50:16.156Z,100.00
2023-05-25T01:52:49.264Z,100.00
2023-05-25T01:55:20.217Z,100.00
2023-05-25T01:58:18.688Z,100.00
2023-05-25T02:00:49.266Z,100.00
2023-05-25T02:03:17.159Z,100.00
2023-05-25T02:05:46.524Z,100.00
2023-05-25T02:08:13.833Z,100.00
2023-05-25T02:10:40.979Z,100.00
2023-05-25T02:13:08.092Z,100.00
2023-05-25T02:15:35.328Z,100.00
2023-05-25T02:18:03.165Z,100.00
2023-05-25T02:20:31.601Z,100.00
2023-05-25T02:22:58.834Z,100.00
2023-05-25T02:25:26.017Z,100.00
2023-05-25T02:27:53.186Z,100.00
2023-05-25T02:30:20.954Z,100.00
2023-05-25T02:32:48.798Z,100.00
2023-05-25T02:35:16.197Z,100.00
2023-05-25T02:37:44.525Z,100.00
2023-05-25T02:40:12.119Z,100.00
2023-05-25T02:42:39.305Z,100.00
2023-05-25T02:45:10.757Z,100.00
2023-05-25T02:47:37.992Z,100.00
2023-05-25T02:50:05.902Z,100.00
2023-05-25T02:52:33.263Z,100.00
2023-05-25T02:55:01.136Z,100.00
2023-05-25T02:57:29.223Z,100.00
2023-05-25T02:59:57.066Z,100.00
2023-05-25T03:02:25.691Z,100.00
2023-05-25T03:04:55.589Z,100.00
2023-05-25T03:07:22.842Z,100.00
2023-05-25T03:09:49.967Z,100.00
2023-05-25T03:12:17.078Z,100.00
2023-05-25T03:14:44.099Z,100.00
2023-05-25T03:17:11.301Z,100.00
2023-05-25T03:19:38.854Z,100.00
2023-05-25T03:22:07.253Z,100.00
2023-05-25T03:24:34.298Z,100.00
2023-05-25T03:27:02.172Z,100.00
2023-05-25T03:29:29.710Z,100.00
2023-05-25T03:31:56.897Z,100.00
2023-05-25T03:34:24.902Z,100.00
2023-05-25T03:36:53.693Z,100.00
2023-05-25T03:39:22.365Z,100.00
2023-05-25T03:41:49.585Z,100.00
2023-05-25T03:44:17.001Z,100.00
2023-05-25T03:46:44.374Z,100.00
2023-05-25T03:49:14.230Z,100.00
2023-05-25T03:51:42.928Z,100.00
2023-05-25T03:54:10.852Z,100.00
2023-05-25T03:56:37.925Z,100.00
2023-05-25T03:59:05.029Z,100.00
2023-05-25T04:01:32.653Z,100.00
2023-05-25T04:04:00.098Z,100.00
2023-05-25T04:06:27.305Z,100.00
2023-05-25T04:08:55.548Z,100.00
2023-05-25T04:11:24.883Z,100.00
2023-05-25T04:13:51.913Z,100.00
2023-05-25T04:16:19.125Z,100.00
2023-05-25T04:18:46.255Z,100.00
2023-05-25T04:21:14.467Z,100.00
2023-05-25T04:23:41.540Z,100.00
2023-05-25T04:26:10.468Z,100.00
2023-05-25T04:28:37.770Z,100.00
2023-05-25T04:31:05.637Z,100.00
2023-05-25T04:33:39.772Z,100.00
2023-05-25T04:36:08.898Z,100.00
2023-05-25T04:38:35.987Z,100.00
2023-05-25T04:41:03.216Z,100.00
2023-05-25T04:43:30.547Z,100.00
2023-05-25T04:46:04.791Z,100.00
2023-05-25T04:48:34.362Z,100.00
2023-05-25T04:51:04.748Z,100.00
2023-05-25T04:53:32.390Z,100.00
2023-05-25T04:55:59.630Z,100.00
2023-05-25T04:58:27.121Z,100.00
2023-05-25T05:00:54.331Z,100.00
2023-05-25T05:03:22.762Z,100.00
2023-05-25T05:05:50.121Z,100.00
2023-05-25T05:08:17.345Z,100.00
2023-05-25T05:10:44.728Z,100.00
2023-05-25T05:13:12.600Z,100.00
2023-05-25T05:15:40.149Z,100.00
2023-05-25T05:18:08.917Z,100.00
2023-05-25T05:20:36.241Z,100.00
2023-05-25T05:23:03.560Z,100.00
2023-05-25T05:25:30.696Z,100.00
2023-05-25T05:27:58.149Z,100.00
2023-05-25T05:30:25.225Z,100.00
2023-05-25T05:32:53.241Z,100.00
2023-05-25T05:35:20.411Z,100.00
2023-05-25T05:37:48.473Z,100.00
2023-05-25T05:40:15.694Z,100.00
2023-05-25T05:42:42.996Z,100.00
2023-05-25T05:45:10.492Z,100.00
2023-05-25T05:47:38.029Z,100.00
2023-05-25T05:50:05.837Z,100.00
2023-05-25T05:52:33.048Z,100.00
2023-05-25T05:55:00.143Z,100.00
2023-05-25T05:57:28.675Z,100.00
2023-05-25T05:59:56.009Z,100.00
2023-05-25T06:02:24.120Z,100.00
2023-05-25T06:04:51.475Z,100.00
2023-05-25T06:07:18.546Z,100.00
2023-05-25T06:09:45.664Z,100.00
2023-05-25T06:12:12.696Z,100.00
2023-05-25T06:14:40.448Z,100.00
2023-05-25T06:17:07.770Z,100.00
2023-05-25T06:19:35.213Z,100.00
2023-05-25T06:22:02.298Z,100.00
2023-05-25T06:24:30.117Z,100.00
2023-05-25T06:26:57.172Z,100.00
2023-05-25T06:29:24.232Z,100.00
2023-05-25T06:31:51.442Z,100.00
2023-05-25T06:34:18.453Z,100.00
2023-05-25T06:36:46.913Z,100.00
2023-05-25T06:39:14.849Z,100.00
2023-05-25T06:41:41.865Z,100.00
2023-05-25T06:44:10.435Z,100.00
2023-05-25T06:46:39.342Z,100.00
2023-05-25T06:49:06.481Z,100.00
2023-05-25T06:51:33.860Z,100.00
2023-05-25T06:54:00.959Z,100.00
2023-05-25T06:56:28.146Z,100.00
2023-05-25T06:58:55.554Z,100.00
2023-05-25T07:01:22.796Z,100.00
2023-05-25T07:03:49.940Z,100.00
2023-05-25T07:06:17.589Z,100.00
2023-05-25T07:08:44.882Z,100.00
2023-05-25T07:11:14.300Z,100.00
2023-05-25T07:13:42.777Z,100.00
2023-05-25T07:16:09.936Z,100.00
2023-05-25T07:18:40.107Z,100.00
2023-05-25T07:21:10.184Z,100.00
2023-05-25T07:23:38.666Z,100.00
2023-05-25T07:26:06.156Z,100.00
2023-05-25T07:28:33.665Z,100.00
2023-05-25T07:31:01.615Z,100.00
2023-05-25T07:33:29.083Z,100.00
2023-05-25T07:35:56.166Z,100.00
2023-05-25T07:38:23.344Z,100.00
2023-05-25T07:40:50.885Z,100.00
2023-05-25T07:43:18.328Z,99.64
2023-05-25T07:45:45.697Z,99.45
2023-05-25T07:48:13.140Z,100.00
2023-05-25T07:50:40.334Z,100.00
2023-05-25T07:53:07.317Z,98.42
2023-05-25T07:55:34.333Z,100.00
2023-05-25T07:58:01.509Z,99.29
2023-05-25T08:00:28.559Z,99.44
2023-05-25T08:02:56.366Z,93.37
2023-05-25T08:05:23.695Z,96.09
2023-05-25T08:07:50.925Z,92.02
2023-05-25T08:10:18.220Z,90.18
2023-05-25T08:12:49.630Z,87.69
2023-05-25T08:15:17.713Z,85.14
2023-05-25T08:17:45.150Z,84.86
2023-05-25T08:20:12.891Z,82.36
2023-05-25T08:22:40.316Z,81.18
2023-05-25T08:25:08.341Z,81.48
2023-05-25T08:27:36.690Z,84.23
2023-05-25T08:30:08.204Z,84.43
2023-05-25T08:32:35.503Z,84.35
2023-05-25T08:35:04.765Z,78.23
2023-05-25T08:37:32.780Z,75.72
2023-05-25T08:40:02.516Z,76.84
2023-05-25T08:42:30.173Z,78.12
2023-05-25T08:44:57.413Z,75.76
2023-05-25T08:47:25.020Z,75.41
2023-05-25T08:49:55.445Z,75.26
2023-05-25T08:52:29.516Z,74.64
2023-05-25T08:55:02.287Z,76.85
2023-05-25T08:58:02.886Z,76.71
2023-05-25T09:00:35.132Z,77.39
2023-05-25T09:03:16.148Z,79.14
2023-05-25T09:05:44.241Z,81.21
2023-05-25T09:08:11.754Z,81.05
2023-05-25T09:10:39.320Z,82.01
2023-05-25T09:13:20.321Z,83.05
2023-05-25T09:15:50.007Z,81.34
2023-05-25T09:18:17.577Z,84.97
2023-05-25T09:20:47.066Z,87.51
2023-05-25T09:23:15.900Z,81.69
2023-05-25T09:25:44.658Z,82.63
2023-05-25T09:30:42.063Z,85.94
2023-05-25T09:33:13.643Z,82.23
2023-05-25T09:35:41.623Z,78.49
2023-05-25T09:38:08.949Z,80.42
2023-05-25T09:40:38.395Z,80.27
2023-05-25T09:43:05.744Z,79.35
2023-05-25T09:45:33.005Z,82.28
2023-05-25T09:48:00.258Z,82.14
2023-05-25T09:50:29.010Z,83.68
2023-05-25T09:52:59.918Z,84.47
2023-05-25T09:55:36.808Z,85.15
2023-05-25T09:58:15.834Z,86.72
2023-05-25T10:00:43.094Z,91.03
2023-05-25T10:03:15.354Z,93.15
2023-05-25T10:05:42.786Z,92.16
2023-05-25T10:08:11.589Z,92.38
2023-05-25T10:10:41.061Z,92.24
2023-05-25T10:13:11.812Z,95.21
2023-05-25T10:15:41.298Z,96.83
2023-05-25T10:18:10.044Z,98.88
2023-05-25T10:20:38.395Z,100.00
2023-05-25T10:23:12.054Z,100.00
2023-05-25T10:25:48.901Z,100.00
2023-05-25T10:28:36.169Z,100.00
2023-05-25T10:31:04.376Z,100.00
2023-05-25T10:33:33.334Z,100.00
2023-05-25T10:38:37.667Z,96.51
2023-05-25T10:41:10.969Z,90.43
2023-05-25T10:43:39.966Z,95.19
2023-05-25T10:46:08.046Z,92.32
2023-05-25T10:48:40.640Z,93.71
2023-05-25T10:51:09.311Z,97.44
2023-05-25T10:53:39.193Z,100.00
2023-05-25T10:56:10.027Z,98.48
2023-05-25T10:58:42.561Z,99.34
2023-05-25T11:01:12.702Z,100.00
2023-05-25T11:03:48.979Z,100.00
2023-05-25T11:06:18.488Z,100.00
2023-05-25T11:08:55.100Z,100.00
2023-05-25T11:11:43.085Z,99.85
2023-05-25T11:14:22.056Z,100.00
2023-05-25T11:17:08.311Z,100.00
2023-05-25T11:19:50.133Z,100.00
2023-05-25T11:22:22.861Z,99.53
2023-05-25T11:24:51.877Z,100.00
2023-05-25T11:27:30.181Z,100.00
2023-05-25T11:29:59.477Z,100.00
2023-05-25T11:32:28.361Z,100.00
2023-05-25T11:34:57.529Z,100.00
2023-05-25T11:37:29.033Z,100.00
2023-05-25T11:39:56.617Z,100.00
2023-05-25T11:42:24.752Z,100.00
2023-05-25T11:44:52.176Z,100.00
2023-05-25T11:47:25.867Z,100.00
2023-05-25T11:49:55.916Z,100.00
2023-05-25T11:52:23.521Z,100.00
2023-05-25T11:54:51.173Z,100.00
2023-05-25T11:57:25.793Z,100.00
2023-05-25T11:59:54.853Z,100.00
2023-05-25T12:02:23.472Z,100.00
2023-05-25T12:04:53.844Z,100.00
2023-05-25T12:07:21.069Z,100.00
2023-05-25T12:09:48.333Z,100.00
2023-05-25T12:12:15.773Z,96.37
2023-05-25T12:14:50.368Z,98.37
2023-05-25T12:17:19.280Z,96.87
2023-05-25T12:19:46.925Z,98.78
2023-05-25T12:22:14.637Z,99.03
2023-05-25T12:24:41.818Z,98.76
2023-05-25T12:27:19.788Z,100.00
2023-05-25T12:29:48.136Z,100.00
2023-05-25T12:32:16.477Z,100.00
2023-05-25T12:34:43.602Z,100.00
2023-05-25T12:37:21.794Z,100.00
2023-05-25T12:39:49.077Z,100.00
2023-05-25T12:42:17.751Z,100.00
2023-05-25T12:44:46.817Z,99.38
2023-05-25T12:47:28.211Z,99.19
2023-05-25T12:50:15.396Z,99.92
2023-05-25T12:52:45.029Z,97.82
2023-05-25T12:55:29.549Z,95.72
2023-05-25T12:58:02.390Z,93.59
2023-05-25T13:00:34.632Z,93.03
2023-05-25T13:03:03.051Z,91.61
2023-05-25T13:05:33.909Z,89.94
2023-05-25T13:08:02.142Z,89.55
2023-05-25T13:10:32.806Z,86.55
2023-05-25T13:13:00.868Z,87.33
2023-05-25T13:15:29.052Z,90.64
2023-05-25T13:18:00.420Z,88.72
2023-05-25T13:20:30.686Z,87.60
2023-05-25T13:22:58.636Z,88.63
2023-05-25T13:25:28.068Z,81.95
2023-05-25T13:27:58.236Z,80.57
2023-05-25T13:30:26.500Z,81.14
2023-05-25T13:32:54.028Z,80.73
2023-05-25T13:35:38.035Z,77.70
2023-05-25T13:38:05.784Z,75.31
2023-05-25T13:40:32.976Z,74.58
2023-05-25T13:42:59.999Z,73.58
2023-05-25T13:45:27.607Z,74.85
2023-05-25T13:47:55.029Z,74.37
2023-05-25T13:50:22.135Z,73.47
2023-05-25T13:52:49.321Z,74.11
2023-05-25T13:55:16.720Z,74.25
2023-05-25T13:57:43.881Z,75.51
2023-05-25T14:00:11.413Z,75.90
2023-05-25T14:02:38.707Z,78.26
2023-05-25T14:05:06.257Z,81.17
2023-05-25T14:07:33.361Z,79.04
2023-05-25T14:10:00.726Z,79.26
2023-05-25T14:12:28.028Z,81.18
2023-05-25T14:14:55.875Z,82.66
2023-05-25T14:17:24.759Z,81.88
2023-05-25T14:19:52.142Z,83.68
2023-05-25T14:22:19.471Z,82.56
2023-05-25T14:24:46.571Z,86.79
2023-05-25T14:27:13.602Z,91.33
2023-05-25T14:29:40.932Z,95.22
2023-05-25T14:32:07.954Z,95.36
2023-05-25T14:34:35.183Z,95.75
2023-05-25T14:37:02.172Z,94.33
2023-05-25T14:39:29.892Z,95.33
2023-05-25T14:41:57.249Z,95.37
2023-05-25T14:44:24.461Z,99.73
2023-05-25T14:46:51.566Z,99.71
2023-05-25T14:49:18.652Z,100.00
2023-05-25T14:51:45.767Z,100.00
2023-05-25T14:54:13.854Z,97.61
2023-05-25T14:56:41.169Z,93.58
2023-05-25T14:59:08.367Z,96.68
2023-05-25T15:01:35.807Z,94.04
2023-05-25T15:04:03.339Z,94.30
2023-05-25T15:06:32.150Z,96.07
2023-05-25T15:08:59.624Z,100.00
2023-05-25T15:11:29.470Z,100.00
2023-05-25T15:13:58.762Z,100.00
2023-05-25T15:16:26.366Z,98.18
2023-05-25T15:18:53.460Z,100.00
2023-05-25T15:21:20.647Z,100.00
2023-05-25T15:23:47.678Z,100.00
2023-05-25T15:26:14.855Z,100.00
2023-05-25T15:28:41.993Z,100.00
2023-05-25T15:31:09.232Z,100.00
2023-05-25T15:33:53.862Z,100.00
2023-05-25T15:36:25.287Z,100.00
2023-05-25T15:38:52.392Z,100.00
2023-05-25T15:41:19.666Z,100.00
2023-05-25T15:43:52.769Z,100.00
2023-05-25T15:46:20.368Z,100.00
2023-05-25T15:48:47.528Z,100.00
2023-05-25T15:51:14.735Z,100.00
2023-05-25T15:53:43.690Z,100.00
2023-05-25T15:56:11.123Z,100.00
2023-05-25T15:58:38.394Z,100.00
2023-05-25T16:01:05.671Z,100.00
2023-05-25T16:03:33.220Z,100.00
2023-05-25T16:06:00.398Z,100.00
2023-05-25T16:08:27.675Z,100.00
2023-05-25T16:10:54.689Z,100.00
2023-05-25T16:13:22.033Z,100.00
2023-05-25T16:15:49.196Z,100.00
2023-05-25T16:18:16.784Z,100.00
2023-05-25T16:20:44.482Z,100.00
2023-05-25T16:23:11.970Z,100.00
2023-05-25T16:25:39.062Z,100.00
2023-05-25T16:28:06.250Z,100.00
2023-05-25T16:30:33.682Z,100.00
2023-05-25T16:33:01.128Z,100.00
2023-05-25T16:35:28.263Z,100.00
2023-05-25T16:37:56.239Z,100.00
2023-05-25T16:40:23.463Z,100.00
2023-05-25T16:42:50.623Z,100.00
2023-05-25T16:45:18.066Z,100.00
2023-05-25T16:47:45.205Z,100.00
2023-05-25T16:50:12.340Z,100.00
2023-05-25T16:52:39.450Z,100.00
2023-05-25T16:55:07.267Z,100.00
2023-05-25T16:57:34.543Z,100.00
2023-05-25T17:00:01.595Z,100.00
2023-05-25T17:02:28.831Z,100.00
2023-05-25T17:04:56.004Z,100.00
2023-05-25T17:07:23.130Z,100.00
2023-05-25T17:09:50.432Z,100.00
2023-05-25T17:12:17.618Z,100.00
2023-05-25T17:14:44.741Z,100.00
2023-05-25T17:17:11.934Z,100.00
2023-05-25T17:19:39.078Z,100.00
2023-05-25T17:22:06.292Z,100.00
2023-05-25T17:24:34.573Z,100.00
2023-05-25T17:27:02.050Z,100.00
2023-05-25T17:29:30.762Z,100.00
2023-05-25T17:31:57.934Z,100.00
2023-05-25T17:34:25.225Z,100.00
2023-05-25T17:36:52.356Z,100.00
2023-05-25T17:39:19.516Z,100.00
2023-05-25T17:41:47.412Z,100.00
2023-05-25T17:44:14.565Z,100.00
2023-05-25T17:46:43.015Z,100.00
2023-05-25T17:49:10.209Z,100.00
2023-05-25T17:51:37.938Z,100.00
2023-05-25T17:54:05.165Z,100.00
2023-05-25T17:56:32.485Z,100.00
2023-05-25T17:58:59.712Z,100.00
2023-05-25T18:01:27.139Z,100.00
2023-05-25T18:03:54.871Z,100.00
2023-05-25T18:06:22.183Z,100.00
2023-05-25T18:08:49.410Z,100.00
2023-05-25T18:11:16.550Z,100.00
2023-05-25T18:13:44.405Z,100.00
2023-05-25T18:16:11.740Z,100.00
2023-05-25T18:18:39.233Z,100.00
2023-05-25T18:21:06.596Z,100.00
2023-05-25T18:23:33.766Z,100.00
2023-05-25T18:26:00.832Z,100.00
2023-05-25T18:28:29.752Z,100.00
2023-05-25T18:30:58.264Z,100.00
2023-05-25T18:33:25.415Z,100.00
2023-05-25T18:35:52.681Z,100.00
2023-05-25T18:38:19.997Z,100.00
2023-05-25T18:40:47.360Z,100.00
2023-05-25T18:43:14.623Z,100.00
2023-05-25T18:45:44.087Z,100.00
2023-05-25T18:48:11.492Z,100.00
2023-05-25T18:50:39.951Z,100.00
2023-05-25T18:53:09.972Z,100.00
2023-05-25T18:55:37.987Z,100.00
2023-05-25T18:58:05.271Z,100.00
2023-05-25T19:00:32.506Z,100.00
2023-05-25T19:02:59.762Z,100.00
2023-05-25T19:05:27.201Z,100.00
2023-05-25T19:07:58.924Z,100.00
2023-05-25T19:10:27.993Z,100.00
2023-05-25T19:12:55.300Z,100.00
2023-05-25T19:15:22.928Z,100.00
2023-05-25T19:17:50.201Z,100.00
2023-05-25T19:20:17.367Z,100.00
2023-05-25T19:22:44.810Z,100.00
2023-05-25T19:25:12.088Z,100.00
2023-05-25T19:27:39.271Z,100.00
2023-05-25T19:30:07.159Z,100.00
2023-05-25T19:32:34.402Z,100.00
2023-05-25T19:35:01.582Z,100.00
2023-05-25T19:37:28.691Z,100.00
2023-05-25T19:39:55.766Z,100.00
2023-05-25T19:42:23.081Z,100.00
2023-05-25T19:44:50.529Z,100.00
2023-05-25T19:47:17.532Z,100.00
2023-05-25T19:49:44.780Z,100.00
2023-05-25T19:52:11.877Z,100.00
2023-05-25T19:54:39.059Z,100.00
2023-05-25T19:57:06.868Z,100.00
2023-05-25T19:59:34.769Z,100.00
2023-05-25T20:02:01.760Z,100.00
2023-05-25T20:04:29.094Z,100.00
2023-05-25T20:06:56.209Z,100.00
2023-05-25T20:09:30.726Z,100.00
2023-05-25T20:11:58.786Z,100.00
2023-05-25T20:14:26.546Z,100.00
2023-05-25T20:16:56.015Z,100.00
2023-05-25T20:19:23.468Z,100.00
2023-05-25T20:21:51.205Z,100.00
2023-05-25T20:24:18.398Z,100.00
2023-05-25T20:26:45.757Z,100.00
2023-05-25T20:29:13.288Z,100.00
2023-05-25T20:31:40.575Z,100.00
2023-05-25T20:34:07.875Z,100.00
2023-05-25T20:36:36.700Z,100.00
2023-05-25T20:39:03.804Z,100.00
2023-05-25T20:41:32.047Z,100.00
2023-05-25T20:43:59.210Z,100.00
2023-05-25T20:46:26.939Z,100.00
2023-05-25T20:48:54.276Z,100.00
2023-05-25T20:51:22.034Z,100.00
2023-05-25T20:53:49.229Z,100.00
2023-05-25T20:56:16.390Z,100.00
2023-05-25T20:58:43.985Z,100.00
2023-05-25T21:01:11.264Z,100.00
2023-05-25T21:03:40.027Z,100.00
2023-05-25T21:06:07.455Z,100.00
2023-05-25T21:08:35.557Z,100.00
2023-05-25T21:11:02.613Z,100.00
2023-05-25T21:13:30.733Z,100.00
2023-05-25T21:15:57.810Z,100.00
2023-05-25T21:18:24.856Z,100.00
2023-05-25T21:20:51.965Z,100.00
2023-05-25T21:23:19.417Z,100.00
2023-05-25T21:25:46.860Z,100.00
2023-05-25T21:28:15.189Z,100.00
2023-05-25T21:30:42.268Z,100.00
2023-05-25T21:33:09.369Z,100.00
2023-05-25T21:35:36.467Z,100.00
2023-05-25T21:38:04.164Z,100.00
2023-05-25T21:40:31.367Z,100.00
2023-05-25T21:42:58.636Z,100.00
2023-05-25T21:45:26.045Z,100.00
2023-05-25T21:47:56.152Z,100.00
2023-05-25T21:50:23.527Z,100.00
2023-05-25T21:52:50.552Z,100.00
2023-05-25T21:55:17.550Z,100.00
2023-05-25T21:57:44.514Z,100.00
2023-05-25T22:00:12.826Z,100.00
2023-05-25T22:02:41.190Z,100.00
2023-05-25T22:05:08.555Z,100.00
2023-05-25T22:07:35.892Z,100.00
2023-05-25T22:10:03.970Z,100.00
2023-05-25T22:12:31.594Z,100.00
2023-05-25T22:14:58.756Z,100.00
2023-05-25T22:17:25.989Z,100.00
2023-05-25T22:20:06.582Z,100.00
2023-05-25T22:22:35.108Z,100.00
2023-05-25T22:25:02.267Z,100.00
2023-05-25T22:27:29.741Z,100.00
2023-05-25T22:29:56.940Z,100.00
2023-05-25T22:32:24.280Z,100.00
2023-05-25T22:34:51.482Z,100.00
2023-05-25T22:37:19.146Z,100.00
2023-05-25T22:39:46.207Z,100.00
2023-05-25T22:42:13.263Z,100.00
2023-05-25T22:44:41.260Z,100.00
2023-05-25T22:47:08.349Z,100.00
2023-05-25T22:49:41.287Z,100.00
2023-05-25T22:52:12.064Z,100.00
2023-05-25T22:54:39.872Z,100.00
2023-05-25T22:57:09.327Z,100.00
2023-05-25T22:59:36.724Z,100.00
2023-05-25T23:02:04.081Z,100.00
2023-05-25T23:04:31.982Z,100.00
2023-05-25T23:06:59.028Z,100.00
2023-05-25T23:09:26.073Z,100.00
2023-05-25T23:11:53.677Z,100.00
2023-05-25T23:14:21.060Z,100.00
2023-05-25T23:16:51.062Z,100.00
2023-05-25T23:19:18.375Z,100.00
2023-05-25T23:21:46.105Z,100.00
2023-05-25T23:24:13.167Z,100.00
2023-05-25T23:26:40.513Z,100.00
2023-05-25T23:29:07.736Z,100.00
2023-05-25T23:31:35.007Z,100.00
2023-05-25T23:34:05.585Z,100.00
2023-05-25T23:36:33.921Z,100.00
2023-05-25T23:39:01.168Z,100.00
2023-05-25T23:41:28.338Z,100.00
2023-05-25T23:43:56.173Z,100.00
2023-05-25T23:46:25.225Z,100.00
2023-05-25T23:48:52.241Z,100.00
2023-05-25T23:51:19.832Z,100.00
2023-05-25T23:53:47.225Z,100.00
2023-05-25T23:56:14.412Z,100.00
2023-05-25T23:58:42.772Z,100.00
